Time;durP1;ratioP1;P1;durP2;ratioP2;P2;SDS_P1;SDS_P2;PMS_P1;PMS_P2;Temp;Humidity;BMP_temperature;BMP_pressure;BME280_temperature;BME280_humidity;BME280_pressure;Samples;Min_cycle;Max_cycle;Signal;HPM_P1;HPM_P2
2023/05/01 00:01:20;;;;;;;;;;;9.94;-0.65;;;;;;2679221;76;20317;-93
2023/05/01 00:04:48;;;;;;;;;;;9.94;-0.55;;;;;;2679860;76;20790;-93
2023/05/01 00:08:16;;;;;;;;;;;9.93;-0.64;;;;;;2680329;76;20342;-93
2023/05/01 00:11:45;;;;;;;;;;;9.88;-0.69;;;;;;2677596;76;20396;-93
2023/05/01 00:15:13;;;;;;;;;;;9.88;-0.67;;;;;;2674949;76;20374;-92
2023/05/01 00:18:43;;;;;;;;;;;9.83;-0.46;;;;;;2675041;76;20369;-92
2023/05/01 00:22:11;;;;;;;;;;;9.78;-0.50;;;;;;2674237;76;20337;-92
2023/05/01 00:25:39;;;;;;;;;;;9.79;-0.35;;;;;;2674515;76;20371;-91
2023/05/01 00:29:08;;;;;;;;;;;9.77;-0.16;;;;;;2675229;76;20379;-93
2023/05/01 00:32:37;;;;;;;;;;;9.75;-0.25;;;;;;2673648;76;20796;-91
2023/05/01 00:36:05;;;;;;;;;;;9.71;-0.21;;;;;;2674222;76;20352;-92
2023/05/01 00:39:33;;;;;;;;;;;9.70;-0.30;;;;;;2674977;76;20963;-92
2023/05/01 00:43:03;;;;;;;;;;;9.66;-0.04;;;;;;2674663;76;20356;-92
2023/05/01 00:46:32;;;;;;;;;;;9.56;0.04;;;;;;2674332;76;20430;-91
2023/05/01 00:50:00;;;;;;;;;;;9.53;-0.05;;;;;;2678182;76;20344;-91
2023/05/01 00:53:28;;;;;;;;;;;9.51;0.28;;;;;;2673453;76;20366;-91
2023/05/01 00:56:57;;;;;;;;;;;9.44;0.24;;;;;;2675103;76;20371;-91
2023/05/01 01:00:25;;;;;;;;;;;9.35;0.35;;;;;;2675226;76;20375;-92
2023/05/01 01:03:53;;;;;;;;;;;9.31;0.57;;;;;;2674628;76;20394;-91
2023/05/01 01:07:23;;;;;;;;;;;9.26;0.42;;;;;;2674503;76;20824;-92
2023/05/01 01:10:51;;;;;;;;;;;9.17;0.37;;;;;;2674303;76;20349;-91
2023/05/01 01:14:19;;;;;;;;;;;9.11;0.43;;;;;;2673973;76;20363;-91
2023/05/01 01:17:53;;;;;;;;;;;9.08;0.22;;;;;;2674108;76;20333;-91
2023/05/01 01:21:18;;;;;;;;;;;9.04;0.01;;;;;;2673529;76;20344;-91
2023/05/01 01:24:46;;;;;;;;;;;8.96;-0.14;;;;;;2674229;76;20349;-92
2023/05/01 01:28:15;;;;;;;;;;;8.92;-0.03;;;;;;2674966;76;20882;-91
2023/05/01 01:31:44;;;;;;;;;;;8.90;-0.15;;;;;;2674906;76;20347;-91
2023/05/01 01:35:15;;;;;;;;;;;8.83;-0.27;;;;;;2674601;76;20336;-92
2023/05/01 01:38:43;;;;;;;;;;;8.76;-0.35;;;;;;2673819;76;20321;-92
2023/05/01 01:42:12;;;;;;;;;;;8.68;-0.28;;;;;;2674154;76;20325;-92
2023/05/01 01:45:40;;;;;;;;;;;8.61;-0.23;;;;;;2674504;76;20354;-92
2023/05/01 01:49:08;;;;;;;;;;;8.49;-0.25;;;;;;2674744;76;20791;-92
2023/05/01 01:52:36;;;;;;;;;;;8.37;-0.29;;;;;;2674615;76;20348;-92
2023/05/01 01:56:05;;;;;;;;;;;8.29;-0.38;;;;;;2675186;76;20414;-91
2023/05/01 01:59:33;;;;;;;;;;;8.26;-0.33;;;;;;2676489;76;20402;-91
2023/05/01 02:03:01;;;;;;;;;;;8.24;0.16;;;;;;2675143;76;20354;-92
2023/05/01 02:06:30;;;;;;;;;;;8.22;0.45;;;;;;2676480;76;20361;-92
2023/05/01 02:10:04;;;;;;;;;;;8.20;0.69;;;;;;2676752;76;20321;-92
2023/05/01 02:13:28;;;;;;;;;;;8.17;0.59;;;;;;2675564;76;20367;-92
2023/05/01 02:16:57;;;;;;;;;;;8.11;0.72;;;;;;2676149;76;20344;-91
2023/05/01 02:20:25;;;;;;;;;;;8.08;0.91;;;;;;2676387;76;20357;-91
2023/05/01 02:23:53;;;;;;;;;;;8.07;1.06;;;;;;2676487;76;20321;-92
2023/05/01 02:27:21;;;;;;;;;;;8.03;1.19;;;;;;2677435;76;20325;-92
2023/05/01 02:30:51;;;;;;;;;;;7.99;1.81;;;;;;2676146;76;20785;-92
2023/05/01 02:34:19;;;;;;;;;;;7.88;2.22;;;;;;2674969;76;20328;-92
2023/05/01 02:37:47;;;;;;;;;;;7.89;2.16;;;;;;2675020;76;20327;-92
2023/05/01 02:41:15;;;;;;;;;;;7.86;2.55;;;;;;2674166;76;20861;-92
2023/05/01 02:44:44;;;;;;;;;;;7.83;2.54;;;;;;2674689;76;20381;-92
2023/05/01 02:48:15;;;;;;;;;;;7.82;3.41;;;;;;2674163;76;20395;-91
2023/05/01 02:51:44;;;;;;;;;;;7.84;3.84;;;;;;2674527;76;20394;-92
2023/05/01 02:55:12;;;;;;;;;;;7.85;3.77;;;;;;2674409;76;20386;-92
2023/05/01 02:58:40;;;;;;;;;;;7.84;3.84;;;;;;2673980;76;20816;-92
2023/05/01 03:02:09;;;;;;;;;;;7.86;3.84;;;;;;2674677;76;20339;-92
2023/05/01 03:05:37;;;;;;;;;;;7.85;4.01;;;;;;2674719;76;20335;-91
2023/05/01 03:09:05;;;;;;;;;;;7.86;3.87;;;;;;2674535;76;20807;-92
2023/05/01 03:12:38;;;;;;;;;;;7.87;3.75;;;;;;2674646;76;20367;-92
2023/05/01 03:16:03;;;;;;;;;;;7.86;3.29;;;;;;2673886;76;20391;-92
2023/05/01 03:19:33;;;;;;;;;;;7.84;3.14;;;;;;2674868;76;20378;-92
2023/05/01 03:23:01;;;;;;;;;;;7.82;3.00;;;;;;2675344;76;20347;-92
2023/05/01 03:26:29;;;;;;;;;;;7.82;2.98;;;;;;2674195;76;20328;-92
2023/05/01 03:29:57;;;;;;;;;;;7.82;3.63;;;;;;2674548;76;20372;-91
2023/05/01 03:33:27;;;;;;;;;;;7.82;3.80;;;;;;2674572;76;20368;-91
2023/05/01 03:36:55;;;;;;;;;;;7.83;3.76;;;;;;2674842;76;20355;-91
2023/05/01 03:40:23;;;;;;;;;;;7.83;3.67;;;;;;2674725;76;20367;-91
2023/05/01 03:43:51;;;;;;;;;;;7.83;3.54;;;;;;2674333;76;20849;-92
2023/05/01 03:47:19;;;;;;;;;;;7.87;3.88;;;;;;2673194;76;20414;-90
2023/05/01 03:50:48;;;;;;;;;;;7.89;3.98;;;;;;2674304;76;20359;-91
2023/05/01 03:54:16;;;;;;;;;;;7.90;3.76;;;;;;2674720;76;20370;-92
2023/05/01 03:57:46;;;;;;;;;;;7.90;3.67;;;;;;2673959;76;20687;-91
2023/05/01 04:01:16;;;;;;;;;;;7.89;3.46;;;;;;2677396;76;20362;-92
2023/05/01 04:04:44;;;;;;;;;;;7.91;3.38;;;;;;2678954;76;20932;-92
2023/05/01 04:08:12;;;;;;;;;;;7.98;3.48;;;;;;2678807;76;20365;-92
2023/05/01 04:11:40;;;;;;;;;;;8.00;3.56;;;;;;2675622;76;20340;-93
2023/05/01 04:15:08;;;;;;;;;;;8.04;3.47;;;;;;2678000;76;20876;-92
2023/05/01 04:18:36;;;;;;;;;;;8.04;3.45;;;;;;2678786;76;20699;-91
2023/05/01 04:22:04;;;;;;;;;;;8.14;3.44;;;;;;2678269;76;20391;-92
2023/05/01 04:25:33;;;;;;;;;;;8.23;3.36;;;;;;2677345;76;20355;-94
2023/05/01 04:29:01;;;;;;;;;;;8.39;3.35;;;;;;2679250;76;20316;-93
2023/05/01 04:32:29;;;;;;;;;;;8.53;3.28;;;;;;2683037;76;20351;-93
2023/05/01 04:35:57;;;;;;;;;;;8.67;3.21;;;;;;2682130;76;20344;-93
2023/05/01 04:39:25;;;;;;;;;;;8.78;3.38;;;;;;2682918;76;20331;-92
2023/05/01 04:42:58;;;;;;;;;;;8.83;3.72;;;;;;2681426;76;20588;-93
2023/05/01 04:46:23;;;;;;;;;;;8.94;4.08;;;;;;2680546;76;20338;-93
2023/05/01 04:49:51;;;;;;;;;;;9.19;4.03;;;;;;2679674;76;20322;-93
2023/05/01 04:53:20;;;;;;;;;;;9.44;3.96;;;;;;2676232;76;20815;-93
2023/05/01 04:56:48;;;;;;;;;;;9.70;3.77;;;;;;2676587;76;20672;-93
2023/05/01 05:00:18;;;;;;;;;;;9.99;3.61;;;;;;2677879;76;20315;-93
2023/05/01 05:03:46;;;;;;;;;;;10.33;3.41;;;;;;2682951;76;20360;-92
2023/05/01 05:07:15;;;;;;;;;;;10.67;3.05;;;;;;2687045;76;20272;-92
2023/05/01 05:10:43;;;;;;;;;;;10.98;2.84;;;;;;2686922;76;20283;-92
2023/05/01 05:14:11;;;;;;;;;;;11.20;2.61;;;;;;2682098;76;20327;-91
2023/05/01 05:17:40;;;;;;;;;;;11.33;2.53;;;;;;2680883;76;20351;-93
2023/05/01 05:21:09;;;;;;;;;;;11.52;2.42;;;;;;2680352;76;20344;-92
2023/05/01 05:24:38;;;;;;;;;;;11.71;2.31;;;;;;2685493;76;20269;-92
2023/05/01 05:28:06;;;;;;;;;;;11.88;1.83;;;;;;2687549;76;20272;-92
2023/05/01 05:31:34;;;;;;;;;;;12.12;1.64;;;;;;2685215;76;20271;-92
2023/05/01 05:35:02;;;;;;;;;;;12.21;1.30;;;;;;2684947;76;20316;-92
2023/05/01 05:38:30;;;;;;;;;;;12.40;0.74;;;;;;2685890;76;20355;-93
2023/05/01 05:41:58;;;;;;;;;;;12.72;0.58;;;;;;2685114;76;20274;-93
2023/05/01 05:45:26;;;;;;;;;;;13.00;0.03;;;;;;2685961;76;20320;-92
2023/05/01 05:48:54;;;;;;;;;;;13.25;-0.48;;;;;;2685646;76;20320;-92
2023/05/01 05:52:23;;;;;;;;;;;13.62;-0.72;;;;;;2686213;76;20288;-92
2023/05/01 05:55:51;;;;;;;;;;;13.76;-1.57;;;;;;2682817;76;20348;-92
2023/05/01 05:59:19;;;;;;;;;;;13.95;-1.85;;;;;;2676263;76;20339;-91
2023/05/01 06:02:47;;;;;;;;;;;14.32;-2.02;;;;;;2678226;76;20334;-92
2023/05/01 06:06:15;;;;;;;;;;;14.49;-3.09;;;;;;2679411;76;20323;-94
2023/05/01 06:09:43;;;;;;;;;;;14.78;-3.02;;;;;;2678913;76;20396;-93
2023/05/01 06:13:12;;;;;;;;;;;14.87;-3.81;;;;;;2684045;76;20319;-93
2023/05/01 06:16:40;;;;;;;;;;;14.72;-3.96;;;;;;2685188;76;20380;-89
2023/05/01 06:20:08;;;;;;;;;;;14.73;-3.59;;;;;;2684906;76;20473;-91
2023/05/01 06:23:37;;;;;;;;;;;14.85;-3.51;;;;;;2684157;76;20311;-92
2023/05/01 06:27:05;;;;;;;;;;;15.10;-3.94;;;;;;2682900;76;20328;-93
2023/05/01 06:30:33;;;;;;;;;;;15.31;-5.14;;;;;;2683761;76;20675;-94
2023/05/01 06:34:01;;;;;;;;;;;15.76;-4.76;;;;;;2682909;76;20320;-92
2023/05/01 06:37:29;;;;;;;;;;;16.05;-5.70;;;;;;2680635;76;20320;-92
2023/05/01 06:40:57;;;;;;;;;;;16.39;-5.77;;;;;;2681444;76;20339;-94
2023/05/01 06:44:25;;;;;;;;;;;16.62;118.40;;;;;;2682739;76;20309;-94
2023/05/01 06:47:53;;;;;;;;;;;16.50;116.62;;;;;;2684414;76;20264;-91
2023/05/01 06:51:21;;;;;;;;;;;16.42;116.49;;;;;;2683420;76;20299;-93
2023/05/01 06:54:50;;;;;;;;;;;16.47;116.15;;;;;;2681511;76;20316;-92
2023/05/01 06:58:18;;;;;;;;;;;16.65;115.84;;;;;;2682442;76;20332;-95
2023/05/01 07:01:46;;;;;;;;;;;16.76;114.93;;;;;;2682102;76;20359;-93
2023/05/01 07:05:14;;;;;;;;;;;16.86;115.09;;;;;;2680547;76;20379;-94
2023/05/01 07:08:42;;;;;;;;;;;16.94;114.30;;;;;;2677062;76;20806;-93
2023/05/01 07:12:11;;;;;;;;;;;16.96;113.47;;;;;;2683006;76;20383;-93
2023/05/01 07:15:39;;;;;;;;;;;17.31;113.97;;;;;;2684063;76;20325;-92
2023/05/01 07:19:07;;;;;;;;;;;17.46;113.82;;;;;;2685000;76;20314;-93
2023/05/01 07:22:35;;;;;;;;;;;17.61;114.09;;;;;;2685044;76;20842;-93
2023/05/01 07:26:04;;;;;;;;;;;17.70;113.10;;;;;;2683189;76;20347;-94
2023/05/01 07:29:35;;;;;;;;;;;18.27;113.56;;;;;;2682666;76;20358;-94
2023/05/01 07:33:04;;;;;;;;;;;18.53;111.74;;;;;;2678296;76;20340;-93
2023/05/01 07:36:32;;;;;;;;;;;18.76;112.03;;;;;;2677061;76;20356;-90
2023/05/01 07:40:01;;;;;;;;;;;18.83;110.97;;;;;;2676243;76;20481;-93
2023/05/01 07:43:29;;;;;;;;;;;18.98;111.03;;;;;;2680288;76;20346;-93
2023/05/01 07:46:57;;;;;;;;;;;19.39;111.39;;;;;;2682759;76;20344;-91
2023/05/01 07:50:25;;;;;;;;;;;19.61;110.40;;;;;;2684492;76;20280;-92
2023/05/01 07:53:53;;;;;;;;;;;19.70;110.04;;;;;;2686945;76;20268;-92
2023/05/01 07:57:24;;;;;;;;;;;19.84;110.57;;;;;;2686192;76;20295;-92
2023/05/01 08:00:54;;;;;;;;;;;19.91;110.64;;;;;;2685364;76;20292;-91
2023/05/01 08:04:23;;;;;;;;;;;20.09;110.82;;;;;;2686202;76;20244;-91
2023/05/01 08:07:51;;;;;;;;;;;20.13;109.86;;;;;;2685952;76;20320;-92
2023/05/01 08:11:19;;;;;;;;;;;20.03;110.15;;;;;;2685249;76;20319;-92
2023/05/01 08:14:47;;;;;;;;;;;19.77;109.15;;;;;;2684079;76;20363;-90
2023/05/01 08:18:19;;;;;;;;;;;19.28;108.18;;;;;;2682973;76;20327;-93
2023/05/01 08:21:45;;;;;;;;;;;19.57;109.07;;;;;;2683118;76;20477;-93
2023/05/01 08:25:13;;;;;;;;;;;19.47;109.30;;;;;;2683161;76;20327;-94
2023/05/01 08:28:41;;;;;;;;;;;19.16;109.39;;;;;;2683455;76;20359;-94
2023/05/01 08:32:09;;;;;;;;;;;17.49;107.73;;;;;;2678601;76;20589;-92
2023/05/01 08:35:37;;;;;;;;;;;17.01;109.03;;;;;;2674820;76;20343;-91
2023/05/01 08:39:05;;;;;;;;;;;17.28;109.81;;;;;;2674107;76;20377;-92
2023/05/01 08:42:33;;;;;;;;;;;17.35;109.91;;;;;;2677691;76;20326;-92
2023/05/01 08:46:04;;;;;;;;;;;17.28;109.86;;;;;;2675303;76;20358;-92
2023/05/01 08:49:33;;;;;;;;;;;17.00;110.27;;;;;;2674288;76;20316;-91
2023/05/01 08:53:02;;;;;;;;;;;17.09;110.67;;;;;;2672109;76;20385;-92
2023/05/01 08:56:30;;;;;;;;;;;17.00;110.90;;;;;;2674466;76;20359;-92
2023/05/01 08:59:58;;;;;;;;;;;16.91;111.22;;;;;;2673693;76;20319;-92
2023/05/01 09:03:27;;;;;;;;;;;16.93;111.48;;;;;;2674333;76;20364;-92
2023/05/01 09:06:55;;;;;;;;;;;16.62;111.71;;;;;;2675471;76;20332;-92
2023/05/01 09:10:23;;;;;;;;;;;16.70;112.09;;;;;;2673277;76;20339;-92
2023/05/01 09:13:51;;;;;;;;;;;15.97;112.15;;;;;;2675086;76;20838;-93
2023/05/01 09:17:20;;;;;;;;;;;15.25;114.12;;;;;;2673150;76;20401;-91
2023/05/01 09:20:48;;;;;;;;;;;15.00;115.82;;;;;;2676214;76;20336;-92
2023/05/01 09:24:16;;;;;;;;;;;15.13;116.67;;;;;;2677591;76;20346;-91
2023/05/01 09:27:44;;;;;;;;;;;14.98;116.47;;;;;;2683052;76;20312;-93
2023/05/01 09:31:13;;;;;;;;;;;14.94;117.41;;;;;;2682673;76;20327;-93
2023/05/01 09:34:42;;;;;;;;;;;15.11;117.07;;;;;;2684190;76;20300;-91
2023/05/01 09:38:10;;;;;;;;;;;15.19;117.34;;;;;;2685613;76;20292;-92
2023/05/01 09:41:38;;;;;;;;;;;15.40;117.91;;;;;;2684913;76;20351;-92
2023/05/01 09:45:06;;;;;;;;;;;15.41;117.57;;;;;;2682829;76;20332;-94
2023/05/01 09:48:36;;;;;;;;;;;14.67;118.71;;;;;;2680260;76;20371;-93
2023/05/01 09:52:04;;;;;;;;;;;14.18;-2.99;;;;;;2677944;76;20310;-93
2023/05/01 09:55:32;;;;;;;;;;;13.55;1.58;;;;;;2675424;76;20370;-92
2023/05/01 09:59:00;;;;;;;;;;;13.68;3.16;;;;;;2672800;76;20402;-91
2023/05/01 10:02:29;;;;;;;;;;;13.59;4.38;;;;;;2671263;76;20411;-91
2023/05/01 10:06:00;;;;;;;;;;;13.77;3.59;;;;;;2673042;76;20310;-91
2023/05/01 10:09:27;;;;;;;;;;;13.46;4.07;;;;;;2671208;76;20796;-92
2023/05/01 10:12:55;;;;;;;;;;;13.26;5.54;;;;;;2672461;76;20317;-91
2023/05/01 10:16:23;;;;;;;;;;;12.92;7.29;;;;;;2672108;76;20741;-92
2023/05/01 10:19:51;;;;;;;;;;;12.88;8.55;;;;;;2672200;76;20706;-91
2023/05/01 10:23:19;;;;;;;;;;;13.20;8.36;;;;;;2672875;76;20330;-91
2023/05/01 10:26:47;;;;;;;;;;;13.25;8.57;;;;;;2669729;76;20330;-92
2023/05/01 10:30:21;;;;;;;;;;;13.68;7.71;;;;;;2670948;76;20760;-91
2023/05/01 10:33:46;;;;;;;;;;;13.89;7.30;;;;;;2671059;76;20854;-91
2023/05/01 10:37:14;;;;;;;;;;;13.45;7.30;;;;;;2672783;76;20713;-91
2023/05/01 10:40:42;;;;;;;;;;;13.09;8.43;;;;;;2669325;76;20398;-91
2023/05/01 10:44:10;;;;;;;;;;;13.10;9.42;;;;;;2670289;76;20820;-91
2023/05/01 10:47:40;;;;;;;;;;;13.16;10.01;;;;;;2670829;76;20385;-91
2023/05/01 10:51:09;;;;;;;;;;;12.97;10.72;;;;;;2670346;76;20371;-91
2023/05/01 10:54:37;;;;;;;;;;;13.22;10.54;;;;;;2671420;76;20809;-91
2023/05/01 10:58:05;;;;;;;;;;;13.25;10.00;;;;;;2671377;76;20381;-91
2023/05/01 11:01:33;;;;;;;;;;;13.36;10.22;;;;;;2670658;76;20394;-91
2023/05/01 11:05:02;;;;;;;;;;;13.10;10.81;;;;;;2671029;76;20306;-92
2023/05/01 11:08:30;;;;;;;;;;;12.85;12.05;;;;;;2668717;76;20346;-93
2023/05/01 11:11:58;;;;;;;;;;;12.79;12.65;;;;;;2670689;76;20381;-93
2023/05/01 11:15:26;;;;;;;;;;;12.72;13.06;;;;;;2673655;76;20380;-93
2023/05/01 11:18:55;;;;;;;;;;;12.91;13.49;;;;;;2672691;76;20341;-94
2023/05/01 11:22:23;;;;;;;;;;;13.10;13.68;;;;;;2674742;76;20305;-94
2023/05/01 11:25:53;;;;;;;;;;;12.90;13.13;;;;;;2675692;76;20333;-94
2023/05/01 11:29:21;;;;;;;;;;;12.43;15.20;;;;;;2674859;76;20326;-94
2023/05/01 11:32:49;;;;;;;;;;;12.26;17.72;;;;;;2681221;76;20318;-96
2023/05/01 11:36:17;;;;;;;;;;;12.12;19.06;;;;;;2679986;76;20298;-95
2023/05/01 11:39:45;;;;;;;;;;;12.12;20.04;;;;;;2686127;76;20268;-96
2023/05/01 11:43:14;;;;;;;;;;;12.58;20.68;;;;;;2684577;76;20335;-96
2023/05/01 11:46:42;;;;;;;;;;;12.67;20.13;;;;;;2686508;76;20302;-96
2023/05/01 11:50:10;;;;;;;;;;;13.08;19.79;;;;;;2686665;76;20348;-96
2023/05/01 11:53:38;;;;;;;;;;;13.24;19.58;;;;;;2685668;76;20281;-96
2023/05/01 11:57:31;;;;;;;;;;;;;;;;;;;;;
2023/05/01 12:01:25;;;;;;;;;;;;;;;;;;;;;
2023/05/01 12:05:11;;;;;;;;;;;13.23;19.49;;;;;;2682580;76;20431;-96
2023/05/01 12:53:08;;;;;;;;;;;15.08;19.74;;;;;;2662785;76;20525;-96
2023/05/01 12:56:43;;;;;;;;;;;14.64;17.86;;;;;;2687473;76;20259;-96
2023/05/01 13:00:16;;;;;;;;;;;15.07;19.70;;;;;;2687180;76;20297;-96
2023/05/01 13:03:56;;;;;;;;;;;14.95;18.19;;;;;;2686426;76;20458;-96
2023/05/01 13:07:31;;;;;;;;;;;15.44;19.79;;;;;;2686415;76;20255;-96
2023/05/01 13:10:56;;;;;;;;;;;15.69;19.95;;;;;;2687367;76;20316;-96
2023/05/01 13:14:46;;;;;;;;;;;15.63;17.62;;;;;;2687464;76;20296;-96
2023/05/01 13:18:18;;;;;;;;;;;15.91;18.18;;;;;;2687426;76;20252;-96
2023/05/01 13:25:28;;;;;;;;;;;16.55;17.62;;;;;;2683698;76;20362;-95
2023/05/01 13:29:04;;;;;;;;;;;17.13;18.65;;;;;;2684836;76;20218;-95
2023/05/01 13:32:38;;;;;;;;;;;17.72;18.54;;;;;;2679669;76;20329;-94
2023/05/01 13:36:06;;;;;;;;;;;17.96;16.72;;;;;;2678747;76;20394;-95
2023/05/01 13:43:08;;;;;;;;;;;18.21;16.29;;;;;;2679834;76;20364;-93
2023/05/01 13:46:36;;;;;;;;;;;17.99;17.04;;;;;;2680750;76;20348;-95
2023/05/01 13:50:05;;;;;;;;;;;18.41;17.51;;;;;;2682729;76;20357;-95
2023/05/01 13:53:36;;;;;;;;;;;18.87;16.30;;;;;;2683029;76;20322;-96
2023/05/01 13:57:05;;;;;;;;;;;18.80;14.05;;;;;;2682136;76;20325;-94
2023/05/01 14:11:43;;;;;;;;;;;19.14;8.65;;;;;;2682511;76;20338;-95
2023/05/01 14:15:26;;;;;;;;;;;;;;;;;;;;;
2023/05/01 14:22:40;;;;;;;;;;;;;;;;;;;;;
2023/05/01 14:26:03;;;;;;;;;;;19.35;12.01;;;;;;2679167;76;20373;-94
2023/05/01 14:29:34;;;;;;;;;;;19.56;13.84;;;;;;2677764;76;20302;-95
2023/05/01 14:44:18;;;;;;;;;;;;;;;;;;;;;
2023/05/01 15:17:29;;;;;;;;;;;17.80;10.69;;;;;;2676892;76;20307;-93
2023/05/01 17:18:35;;;;;;;;;;;14.52;20.82;;;;;;2672504;76;20336;-96
2023/05/01 17:22:03;;;;;;;;;;;14.38;21.28;;;;;;2682617;76;20323;-96
2023/05/01 17:25:48;;;;;;;;;;;14.24;21.73;;;;;;2685304;76;20301;-96
2023/05/01 17:29:40;;;;;;;;;;;;;;;;;;;;;
2023/05/01 17:40:29;;;;;;;;;;;13.92;23.34;;;;;;2678673;76;20351;-96
2023/05/01 17:51:27;;;;;;;;;;;;;;;;;;;;;
2023/05/01 17:55:01;;;;;;;;;;;13.88;24.27;;;;;;2681924;76;20723;-94
2023/05/01 18:17:44;;;;;;;;;;;13.46;26.40;;;;;;2675068;76;20370;-93
2023/05/01 18:21:13;;;;;;;;;;;13.39;26.60;;;;;;2679626;76;20324;-94
2023/05/01 18:24:46;;;;;;;;;;;13.32;27.13;;;;;;2677050;76;20325;-96
2023/05/01 18:28:24;;;;;;;;;;;13.30;27.38;;;;;;2678401;76;20359;-94
2023/05/01 18:31:53;;;;;;;;;;;13.25;27.91;;;;;;2682515;76;20301;-95
2023/05/01 18:35:32;;;;;;;;;;;13.22;28.27;;;;;;2683810;76;20249;-95
2023/05/01 18:39:10;;;;;;;;;;;13.24;28.45;;;;;;2684758;76;20291;-95
2023/05/01 18:42:39;;;;;;;;;;;13.27;28.63;;;;;;2677346;76;20364;-95
2023/05/01 18:57:02;;;;;;;;;;;13.02;30.09;;;;;;2684632;76;20362;-96
2023/05/01 19:00:29;;;;;;;;;;;12.99;30.50;;;;;;2684641;76;20267;-95
2023/05/01 19:04:03;;;;;;;;;;;12.91;30.69;;;;;;2676669;76;20347;-96
2023/05/01 19:07:28;;;;;;;;;;;12.87;31.16;;;;;;2679296;76;20338;-96
2023/05/01 19:10:56;;;;;;;;;;;12.82;31.55;;;;;;2685735;76;20283;-96
2023/05/01 19:14:27;;;;;;;;;;;12.73;32.28;;;;;;2685031;76;20476;-96
2023/05/01 19:18:09;;;;;;;;;;;12.74;32.51;;;;;;2679323;76;20281;-96
2023/05/01 19:21:39;;;;;;;;;;;12.72;32.83;;;;;;2685318;76;20489;-96
2023/05/01 19:25:14;;;;;;;;;;;12.67;33.23;;;;;;2685074;76;20470;-96
2023/05/01 19:28:41;;;;;;;;;;;12.61;33.70;;;;;;2686631;76;20278;-96
2023/05/01 19:32:11;;;;;;;;;;;12.61;34.00;;;;;;2685342;76;20350;-96
2023/05/01 19:36:00;;;;;;;;;;;12.57;34.57;;;;;;2686146;76;20442;-96
2023/05/01 19:39:25;;;;;;;;;;;12.58;34.89;;;;;;2686430;76;20432;-96
2023/05/01 19:42:48;;;;;;;;;;;12.60;34.82;;;;;;2686520;76;20484;-96
2023/05/01 19:46:24;;;;;;;;;;;12.63;34.76;;;;;;2686490;76;20266;-96
2023/05/01 19:53:29;;;;;;;;;;;12.70;34.97;;;;;;2686040;76;20374;-96
2023/05/01 19:56:57;;;;;;;;;;;12.72;35.01;;;;;;2686173;76;20358;-96
2023/05/01 20:00:26;;;;;;;;;;;12.73;35.10;;;;;;2684850;76;20332;-96
2023/05/01 20:03:55;;;;;;;;;;;12.73;35.29;;;;;;2685824;76;20264;-96
2023/05/01 20:07:23;;;;;;;;;;;12.73;35.43;;;;;;2686094;76;20261;-96
2023/05/01 20:10:58;;;;;;;;;;;12.70;35.70;;;;;;2686276;76;20502;-96
2023/05/01 20:14:28;;;;;;;;;;;12.55;36.41;;;;;;2686627;76;20273;-96
2023/05/01 20:17:57;;;;;;;;;;;12.14;37.01;;;;;;2686202;76;20217;-96
2023/05/01 20:21:25;;;;;;;;;;;11.97;37.81;;;;;;2686105;76;20257;-96
2023/05/01 20:24:54;;;;;;;;;;;12.01;36.99;;;;;;2685808;76;20290;-96
2023/05/01 20:28:25;;;;;;;;;;;12.01;36.34;;;;;;2685855;76;20256;-96
2023/05/01 20:31:59;;;;;;;;;;;11.94;36.35;;;;;;2682463;76;20278;-96
2023/05/01 20:35:28;;;;;;;;;;;11.88;36.43;;;;;;2685191;76;20282;-96
2023/05/01 20:39:00;;;;;;;;;;;11.87;36.24;;;;;;2686572;76;20299;-96
2023/05/01 20:42:28;;;;;;;;;;;11.86;36.28;;;;;;2686044;76;20240;-96
2023/05/01 20:50:05;;;;;;;;;;;11.76;36.62;;;;;;2686034;76;20297;-96
2023/05/01 20:53:46;;;;;;;;;;;11.76;36.68;;;;;;2686385;76;21004;-96
2023/05/01 20:57:17;;;;;;;;;;;11.73;36.70;;;;;;2685918;76;20261;-96
2023/05/01 21:00:46;;;;;;;;;;;11.67;37.08;;;;;;2685935;76;20268;-96
2023/05/01 21:04:25;;;;;;;;;;;11.66;37.31;;;;;;2687090;76;20322;-96
2023/05/01 21:11:24;;;;;;;;;;;11.68;37.30;;;;;;2687450;76;20484;-96
2023/05/01 21:14:54;;;;;;;;;;;11.64;37.57;;;;;;2679634;76;20611;-92
2023/05/01 21:18:22;;;;;;;;;;;11.64;37.75;;;;;;2674066;76;20698;-92
2023/05/01 21:21:51;;;;;;;;;;;11.63;37.88;;;;;;2674119;76;20786;-92
2023/05/01 21:25:20;;;;;;;;;;;11.66;37.81;;;;;;2674493;76;23089;-92
2023/05/01 21:28:48;;;;;;;;;;;11.74;37.84;;;;;;2674489;76;20468;-92
2023/05/01 21:32:16;;;;;;;;;;;11.76;37.67;;;;;;2674332;76;20809;-91
2023/05/01 21:35:44;;;;;;;;;;;11.76;37.65;;;;;;2674172;76;20378;-92
2023/05/01 21:39:12;;;;;;;;;;;11.72;37.72;;;;;;2675096;76;20373;-92
2023/05/01 21:42:40;;;;;;;;;;;11.70;37.97;;;;;;2674715;76;20362;-92
2023/05/01 21:46:08;;;;;;;;;;;11.69;37.97;;;;;;2673505;76;20393;-92
2023/05/01 21:49:38;;;;;;;;;;;11.67;38.29;;;;;;2674163;76;20373;-91
2023/05/01 21:53:06;;;;;;;;;;;11.63;38.45;;;;;;2674704;76;20327;-92
2023/05/01 21:56:34;;;;;;;;;;;11.44;38.85;;;;;;2674852;76;20333;-92
2023/05/01 22:00:08;;;;;;;;;;;11.42;40.17;;;;;;2674260;76;20751;-92
2023/05/01 22:03:32;;;;;;;;;;;11.46;40.65;;;;;;2674290;76;20424;-92
2023/05/01 22:07:03;;;;;;;;;;;11.49;40.36;;;;;;2674095;76;20344;-92
2023/05/01 22:10:31;;;;;;;;;;;11.59;39.74;;;;;;2674264;76;20848;-92
2023/05/01 22:14:02;;;;;;;;;;;11.60;39.46;;;;;;2674812;76;20323;-92
2023/05/01 22:17:33;;;;;;;;;;;11.48;39.87;;;;;;2674418;76;20640;-92
2023/05/01 22:21:02;;;;;;;;;;;11.54;39.94;;;;;;2673538;76;20356;-92
2023/05/01 22:24:36;;;;;;;;;;;11.56;39.87;;;;;;2674504;76;20337;-92
2023/05/01 22:28:07;;;;;;;;;;;11.49;40.39;;;;;;2673685;76;20330;-91
2023/05/01 22:31:35;;;;;;;;;;;11.55;40.10;;;;;;2674488;76;20344;-92
2023/05/01 22:35:03;;;;;;;;;;;11.57;39.94;;;;;;2674140;76;20372;-92
2023/05/01 22:38:31;;;;;;;;;;;11.56;39.93;;;;;;2674296;76;20347;-92
2023/05/01 22:42:00;;;;;;;;;;;11.55;40.11;;;;;;2674688;76;20803;-92
2023/05/01 22:45:28;;;;;;;;;;;11.51;40.38;;;;;;2673376;76;20753;-92
2023/05/01 22:48:58;;;;;;;;;;;11.55;40.23;;;;;;2674722;76;20756;-91
2023/05/01 22:52:26;;;;;;;;;;;11.55;40.14;;;;;;2674188;76;20372;-91
2023/05/01 22:55:54;;;;;;;;;;;11.55;39.81;;;;;;2673881;76;20361;-91
2023/05/01 22:59:22;;;;;;;;;;;11.47;39.62;;;;;;2674494;76;20304;-90
2023/05/01 23:02:51;;;;;;;;;;;11.47;39.64;;;;;;2674764;76;20298;-92
2023/05/01 23:06:19;;;;;;;;;;;11.52;39.80;;;;;;2673830;76;20314;-92
2023/05/01 23:09:47;;;;;;;;;;;11.52;39.79;;;;;;2674728;76;20318;-91
2023/05/01 23:13:16;;;;;;;;;;;11.48;39.75;;;;;;2674580;76;20793;-91
2023/05/01 23:16:44;;;;;;;;;;;11.46;39.59;;;;;;2673929;76;20305;-91
2023/05/01 23:20:12;;;;;;;;;;;11.40;39.13;;;;;;2674078;76;20314;-91
2023/05/01 23:23:45;;;;;;;;;;;11.29;38.42;;;;;;2673845;76;20776;-91
2023/05/01 23:27:11;;;;;;;;;;;11.19;37.95;;;;;;2675743;76;20785;-92
2023/05/01 23:30:39;;;;;;;;;;;11.09;37.50;;;;;;2673676;76;20320;-91
2023/05/01 23:34:07;;;;;;;;;;;11.03;36.49;;;;;;2674820;76;20424;-92
2023/05/01 23:37:36;;;;;;;;;;;10.95;36.96;;;;;;2675055;76;20642;-92
2023/05/01 23:41:04;;;;;;;;;;;10.99;38.59;;;;;;2676053;76;20360;-91
2023/05/01 23:44:32;;;;;;;;;;;11.04;38.62;;;;;;2677149;76;20348;-91
2023/05/01 23:48:01;;;;;;;;;;;11.03;38.43;;;;;;2674763;76;20345;-91
2023/05/01 23:51:30;;;;;;;;;;;10.92;39.56;;;;;;2674261;76;20801;-92
2023/05/01 23:54:58;;;;;;;;;;;11.00;38.91;;;;;;2674956;76;20306;-92
2023/05/01 23:58:26;;;;;;;;;;;10.92;38.37;;;;;;2675021;76;20336;-92
